KSAV/SAV METAR and TAF weather

Enter ICAO airport designator
Station Type Date Time Source
KSAV METAR 2019/08/26 06:53 UTC NOAA

KSAV 260653Z AUTO 04006KT 10SM CLR 21/19 A3003 RMK AO2 SLP166 T02110194


Station Type Date Time Source
KSAV Decoded METAR 2019/08/26 06:53 UTC NOAA

Station name not available
Aug 26, 2019 - 02:53 AM EDT / 2019.08.26 0653 UTC
Wind: from the NE (040 degrees) at 7 MPH (6 KT):0
Visibility: 10 mile(s):0
Sky conditions: clear
Temperature: 70.0 F (21.1 C)
Dew Point: 66.9 F (19.4 C)
Relative Humidity: 90%
Pressure (altimeter): 30.03 in. Hg (1016 hPa)
ob: KSAV 260653Z AUTO 04006KT 10SM CLR 21/19 A3003 RMK AO2 SLP166 T02110194
cycle: 7

Station Type Date Time Source
KSAV TAF 2019/08/26 06:27 UTC NOAA

TAF KSAV 260520Z 2606/2706 03007KT P6SM SCT025 BKN035
FM261800 09009KT P6SM BKN040
FM270100 07004KT P6SM SCT050

Example: see airport list